Time;durP1;ratioP1;P1;durP2;ratioP2;P2;SDS_P1;SDS_P2;PMS_P1;PMS_P2;Temp;Humidity;BMP_temperature;BMP_pressure;BME280_temperature;BME280_humidity;BME280_pressure;Samples;Min_cycle;Max_cycle;Signal;HPM_P1;HPM_P2
2022/09/20 00:01:41;;;;;;;0.70;0.70;;;;;;;15.19;52.80;98092.28;4488018;32;20100;-92
2022/09/20 00:04:08;;;;;;;4.15;0.85;;;;;;;15.29;52.61;98101.19;4487644;31;20132;-92
2022/09/20 00:06:35;;;;;;;0.80;0.70;;;;;;;15.02;53.48;98102.87;4488018;31;20432;-92
2022/09/20 00:09:04;;;;;;;3.12;0.82;;;;;;;15.01;53.12;98099.44;4487966;31;20092;-92
2022/09/20 00:11:33;;;;;;;2.60;1.00;;;;;;;14.72;54.42;98105.53;4487542;32;20096;-92
2022/09/20 00:14:01;;;;;;;2.08;0.85;;;;;;;14.92;53.76;98101.75;4488109;31;20092;-92
2022/09/20 00:16:30;;;;;;;2.53;0.80;;;;;;;14.49;54.73;98109.47;4487518;32;20635;-92
2022/09/20 00:18:59;;;;;;;2.58;1.08;;;;;;;14.79;54.02;98103.41;4488017;31;20080;-92
2022/09/20 00:21:28;;;;;;;3.45;0.90;;;;;;;14.91;53.77;98108.72;4487930;31;20101;-92
2022/09/20 00:23:56;;;;;;;1.62;0.82;;;;;;;14.54;54.58;98104.00;4486524;32;20104;-92
2022/09/20 00:26:24;;;;;;;1.08;0.77;;;;;;;14.92;53.55;98096.56;4488038;31;20084;-92
2022/09/20 00:28:51;;;;;;;3.67;1.00;;;;;;;14.58;54.58;98116.72;4486669;32;20107;-92
2022/09/20 00:31:19;;;;;;;1.35;0.70;;;;;;;14.90;53.59;98116.63;4487315;31;20161;-92
2022/09/20 00:36:31;;;;;;;3.55;0.90;;;;;;;14.82;54.13;98117.06;4487881;31;20084;-92
2022/09/20 00:38:59;;;;;;;;;;;;;;;14.33;55.45;98119.00;4487642;32;20103;-92
2022/09/20 00:41:26;;;;;;;2.83;0.90;;;;;;;14.86;53.69;98109.91;4487765;31;19991;-92
2022/09/20 00:43:53;;;;;;;2.65;0.90;;;;;;;15.14;53.09;98107.34;4486610;32;20100;-92
2022/09/20 00:46:28;;;;;;;1.55;0.95;;;;;;;15.23;53.04;98113.75;4487432;31;20088;-91
2022/09/20 00:49:03;;;;;;;1.05;0.80;;;;;;;15.11;53.01;98110.13;4486854;32;20430;-92
2022/09/20 00:51:34;;;;;;;5.07;0.88;;;;;;;15.16;52.86;98112.44;4486344;32;20123;-91
2022/09/20 00:54:02;;;;;;;1.23;0.70;;;;;;;15.10;52.83;98112.81;4486547;32;20413;-91
2022/09/20 00:56:34;;;;;;;0.90;0.70;;;;;;;15.33;52.27;98114.88;4486560;32;20084;-92
2022/09/20 00:59:10;;;;;;;1.65;0.77;;;;;;;15.11;52.76;98115.34;4487402;31;20114;-92
2022/09/20 01:01:37;;;;;;;1.75;0.80;;;;;;;15.04;52.93;98112.25;4486538;32;20119;-91
2022/09/20 01:04:04;;;;;;;1.33;0.80;;;;;;;14.88;53.26;98103.69;4487591;32;20394;-91
2022/09/20 01:06:32;;;;;;;0.88;0.80;;;;;;;15.18;52.23;98113.19;4487225;31;20088;-92
2022/09/20 01:09:01;;;;;;;1.48;0.90;;;;;;;15.10;52.22;98105.88;4486490;32;20423;-92
2022/09/20 01:11:29;;;;;;;3.83;1.20;;;;;;;14.91;52.97;98116.50;4486366;32;20101;-92
2022/09/20 01:13:56;;;;;;;1.45;1.00;;;;;;;15.38;51.59;98109.38;4485387;32;20146;-92
2022/09/20 01:16:24;;;;;;;1.95;1.02;;;;;;;15.07;52.48;98107.78;4487560;32;20363;-91
2022/09/20 01:18:51;;;;;;;2.50;0.95;;;;;;;15.11;52.35;98117.09;4487540;31;20084;-92
2022/09/20 01:21:19;;;;;;;2.67;1.05;;;;;;;14.47;54.07;98108.72;4486075;32;20712;-91
2022/09/20 01:24:04;;;;;;;1.83;0.90;;;;;;;14.63;54.09;98112.09;4487472;31;20410;-91
2022/09/20 01:26:31;;;;;;;2.17;0.88;;;;;;;14.91;53.32;98108.72;4487152;32;20103;-92
2022/09/20 01:29:08;;;;;;;;;;;;;;;14.09;55.22;98113.44;4487932;31;20431;-92
2022/09/20 01:31:41;;;;;;;1.77;0.90;;;;;;;14.43;54.52;98115.78;4486286;32;20015;-91
2022/09/20 01:34:23;;;;;;;3.65;1.20;;;;;;;14.89;53.26;98105.38;4487148;31;20101;-92
2022/09/20 01:37:09;;;;;;;2.80;1.00;;;;;;;14.31;54.92;98107.88;4486265;32;20084;-92
2022/09/20 01:39:57;;;;;;;3.08;0.85;;;;;;;14.35;54.94;98105.00;4487485;32;20102;-92
2022/09/20 01:42:33;;;;;;;3.08;0.95;;;;;;;14.30;55.37;98108.81;4488162;31;20101;-92
2022/09/20 01:45:17;;;;;;;2.25;0.80;;;;;;;14.05;56.08;98106.75;4486604;32;20740;-92
2022/09/20 01:48:09;;;;;;;1.35;0.75;;;;;;;14.26;55.79;98112.50;4487882;31;20594;-92
2022/09/20 01:51:13;;;;;;;1.80;0.93;;;;;;;14.03;56.53;98113.78;4488085;32;20450;-93
2022/09/20 01:54:02;;;;;;;1.80;0.90;;;;;;;13.63;58.14;98107.34;4488773;32;20162;-93
2022/09/20 01:56:51;;;;;;;2.33;0.95;;;;;;;13.83;57.51;98107.94;4487802;31;20088;-93
2022/09/20 01:59:36;;;;;;;2.85;1.00;;;;;;;14.07;56.79;98107.50;4488435;32;20084;-92
2022/09/20 02:02:27;;;;;;;3.05;1.00;;;;;;;14.15;56.79;98113.94;4488430;32;20072;-93
2022/09/20 02:05:12;;;;;;;1.83;0.98;;;;;;;13.93;57.27;98110.00;4489194;32;20092;-93
2022/09/20 02:07:59;;;;;;;3.25;1.00;;;;;;;14.10;56.83;98113.34;4487869;32;20711;-93
2022/09/20 02:10:52;;;;;;;2.13;1.00;;;;;;;13.86;57.87;98114.72;4488392;31;20410;-93
2022/09/20 02:13:32;;;;;;;2.60;1.00;;;;;;;14.02;57.38;98110.34;4487654;31;20107;-92
2022/09/20 02:15:59;;;;;;;0.80;0.80;;;;;;;14.26;56.75;98109.91;4486434;32;20119;-92
2022/09/20 02:18:46;;;;;;;;;;;;;;;14.40;56.43;98115.16;4489425;31;20100;-92
2022/09/20 02:21:24;;;;;;;3.53;1.10;;;;;;;13.97;57.71;98120.16;4487407;32;19987;-92
2022/09/20 02:24:39;;;;;;;3.30;1.17;;;;;;;14.06;57.69;98117.06;4487732;31;20162;-92
2022/09/20 02:27:24;;;;;;;1.83;1.00;;;;;;;14.10;57.52;98110.75;4441051;31;20097;-92
2022/09/20 02:30:03;;;;;;;2.15;0.93;;;;;;;14.13;57.62;98118.37;4489610;32;20106;-93
2022/09/20 02:32:52;;;;;;;4.00;1.15;;;;;;;13.80;58.69;98121.06;4488371;32;20092;-92
2022/09/20 02:35:27;;;;;;;2.92;1.17;;;;;;;14.34;57.05;98121.50;4488244;32;20080;-92
2022/09/20 02:38:10;;;;;;;3.62;1.10;;;;;;;13.98;58.76;98119.22;4488670;31;20096;-93
2022/09/20 02:40:57;;;;;;;3.15;1.23;;;;;;;14.87;55.57;98114.16;4475112;32;20108;-92
2022/09/20 02:43:43;;;;;;;2.83;1.00;;;;;;;14.94;55.55;98112.91;4478804;32;20089;-92
2022/09/20 02:46:25;;;;;;;2.45;1.27;;;;;;;14.99;55.28;98116.03;4488350;32;20155;-92
2022/09/20 02:49:00;;;;;;;3.40;1.15;;;;;;;14.67;55.99;98117.94;4487996;31;20451;-92
2022/09/20 02:51:38;;;;;;;2.83;1.10;;;;;;;15.39;53.91;98116.25;4487501;31;20100;-92
2022/09/20 02:54:12;;;;;;;2.75;1.20;;;;;;;15.45;53.74;98118.47;4487760;32;20099;-92
2022/09/20 02:56:59;;;;;;;5.82;1.20;;;;;;;15.55;53.58;98117.81;4488005;31;20076;-92
2022/09/20 02:59:46;;;;;;;4.12;1.20;;;;;;;15.23;54.33;98116.34;4487572;31;20503;-92
2022/09/20 03:02:18;;;;;;;1.95;1.00;;;;;;;15.33;53.72;98120.91;4486985;32;20113;-92
2022/09/20 03:05:00;;;;;;;1.35;0.90;;;;;;;14.99;54.85;98129.03;4487449;31;20095;-91
2022/09/20 03:07:46;;;;;;;2.30;1.00;;;;;;;14.83;55.13;98116.13;4487893;32;20079;-92
2022/09/20 03:10:25;;;;;;;3.58;1.00;;;;;;;15.02;54.87;98118.47;4487547;32;20093;-92
2022/09/20 03:13:09;;;;;;;2.40;1.08;;;;;;;15.31;54.14;98120.16;4487212;31;20430;-93
2022/09/20 03:15:51;;;;;;;1.80;1.10;;;;;;;15.36;53.63;98117.28;4487644;31;20121;-92
2022/09/20 03:18:28;;;;;;;3.28;1.08;;;;;;;15.15;54.29;98118.56;4487496;32;20072;-92
2022/09/20 03:21:30;;;;;;;2.17;1.10;;;;;;;15.26;54.00;98126.56;4473134;32;20161;-92
2022/09/20 03:24:33;;;;;;;2.12;0.70;;;;;;;15.01;54.30;98122.00;4473672;32;20494;-92
2022/09/20 03:27:35;;;;;;;2.47;1.00;;;;;;;15.38;52.88;98119.78;4486396;32;20089;-92
2022/09/20 03:30:27;;;;;;;2.92;1.10;;;;;;;15.19;53.69;98118.28;4487918;31;20084;-92
2022/09/20 03:33:18;;;;;;;3.00;0.95;;;;;;;15.15;53.83;98127.19;4494163;31;20081;-90
2022/09/20 03:36:00;;;;;;;3.28;1.10;;;;;;;14.60;54.98;98124.44;4489089;32;20104;-92
2022/09/20 03:38:41;;;;;;;4.00;1.30;;;;;;;13.76;57.38;98124.75;4487803;31;20093;-92
2022/09/20 03:41:32;;;;;;;2.78;0.98;;;;;;;14.38;56.01;98124.78;4487268;31;20382;-92
2022/09/20 03:44:38;;;;;;;4.68;1.00;;;;;;;14.38;56.09;98130.81;4487370;32;20119;-92
2022/09/20 03:47:26;;;;;;;4.18;1.20;;;;;;;14.42;56.09;98123.69;4482509;31;20126;-92
2022/09/20 03:50:10;;;;;;;2.58;1.05;;;;;;;14.51;55.75;98122.34;4488371;32;20461;-92
2022/09/20 03:52:43;;;;;;;1.77;1.08;;;;;;;14.52;55.49;98121.44;4487991;32;20084;-92
2022/09/20 03:55:16;;;;;;;2.67;0.90;;;;;;;13.68;57.69;98120.91;4487928;31;20153;-92
2022/09/20 03:57:43;;;;;;;3.45;1.12;;;;;;;14.14;56.96;98114.00;4488301;31;20115;-92
2022/09/20 04:00:22;;;;;;;;;;;;;;;13.79;58.02;98115.97;4488506;31;20106;-91
2022/09/20 04:02:54;;;;;;;;;;;;;;;13.95;57.45;98116.81;4488681;31;20306;-92
2022/09/20 04:06:03;;;;;;;2.75;1.05;;;;;;;13.70;58.21;98106.91;4487671;32;19987;-92
2022/09/20 04:08:55;;;;;;;3.20;1.20;;;;;;;13.72;58.54;98109.47;4488930;31;20101;-92
2022/09/20 04:11:29;;;;;;;4.80;1.08;;;;;;;13.56;59.42;98115.47;4488191;32;20085;-92
2022/09/20 04:14:04;;;;;;;4.40;1.20;;;;;;;13.60;59.42;98105.75;4489055;31;20659;-92
2022/09/20 04:16:45;;;;;;;1.52;1.10;;;;;;;13.53;59.57;98114.78;4488454;32;20073;-92
2022/09/20 04:19:30;;;;;;;2.83;1.08;;;;;;;13.60;59.87;98114.34;4488043;32;20096;-93
2022/09/20 04:22:00;;;;;;;1.73;1.00;;;;;;;13.57;59.87;98121.47;4488736;31;20438;-93
2022/09/20 04:24:32;;;;;;;3.50;1.20;;;;;;;13.56;59.68;98120.63;4492476;32;20069;-92
2022/09/20 04:27:01;;;;;;;2.03;0.90;;;;;;;13.89;58.84;98117.97;4489815;31;20111;-92
2022/09/20 04:29:35;;;;;;;2.40;1.37;;;;;;;13.69;59.32;98118.22;4487989;31;20096;-92
2022/09/20 04:32:24;;;;;;;1.77;1.15;;;;;;;14.17;57.98;98119.88;4487112;32;20087;-93
2022/09/20 04:37:51;;;;;;;1.80;1.05;;;;;;;14.08;58.13;98125.56;4486623;32;20101;-92
2022/09/20 04:40:36;;;;;;;2.75;1.10;;;;;;;14.17;57.65;98130.25;4487932;31;20096;-93
2022/09/20 04:43:16;;;;;;;3.83;1.10;;;;;;;13.98;58.78;98127.00;4487665;32;20105;-92
2022/09/20 04:46:05;;;;;;;2.58;1.20;;;;;;;14.16;57.98;98138.12;4487035;32;20715;-92
2022/09/20 04:48:39;;;;;;;1.45;0.95;;;;;;;13.65;60.05;98141.81;4487466;31;20111;-93
2022/09/20 04:51:50;;;;;;;2.55;1.30;;;;;;;13.81;59.17;98140.87;4487233;32;20176;-92
2022/09/20 04:54:50;;;;;;;2.78;1.23;;;;;;;13.83;59.29;98141.66;4411736;32;20117;-92
2022/09/20 04:57:40;;;;;;;1.92;1.10;;;;;;;13.68;59.87;98137.28;4487876;32;20107;-92
2022/09/20 05:00:14;;;;;;;3.67;1.30;;;;;;;13.87;59.11;98139.72;4489408;32;20138;-93
2022/09/20 05:03:00;;;;;;;2.55;1.27;;;;;;;13.91;59.12;98143.81;4488119;32;20104;-92
2022/09/20 05:06:01;;;;;;;2.72;1.00;;;;;;;13.68;60.22;98139.06;4487932;31;20091;-92
2022/09/20 05:08:48;;;;;;;1.77;1.05;;;;;;;14.45;57.75;98145.12;4487529;32;20136;-93
2022/09/20 05:11:41;;;;;;;5.82;1.48;;;;;;;14.50;57.37;98150.06;4488444;31;20100;-93
2022/09/20 05:14:36;;;;;;;2.22;0.80;;;;;;;14.57;56.87;98156.59;4459889;31;20110;-92
2022/09/20 05:17:14;;;;;;;2.70;1.35;;;;;;;15.15;55.37;98140.19;4488521;31;20080;-92
2022/09/20 05:19:54;;;;;;;3.58;1.37;;;;;;;15.62;53.65;98144.31;4487572;31;20073;-92
2022/09/20 05:23:03;;;;;;;2.58;1.00;;;;;;;16.46;51.48;98150.22;4487892;32;20164;-93
2022/09/20 05:25:41;;;;;;;3.58;1.20;;;;;;;16.33;51.22;98148.50;4486961;32;20115;-93
2022/09/20 05:28:15;;;;;;;1.00;0.90;;;;;;;17.24;49.24;98145.06;4486693;32;20106;-92
2022/09/20 05:31:02;;;;;;;3.72;1.00;;;;;;;17.83;47.44;98160.16;4488630;31;20102;-92
2022/09/20 05:33:59;;;;;;;2.83;1.08;;;;;;;18.32;45.83;98141.81;4487255;32;20100;-93
2022/09/20 05:36:49;;;;;;;2.55;1.10;;;;;;;18.46;45.49;98152.09;4486999;32;20127;-92
2022/09/20 05:39:43;;;;;;;5.18;1.00;;;;;;;18.98;44.32;98163.94;4486230;32;20088;-92
2022/09/20 05:42:13;;;;;;;4.45;1.17;;;;;;;20.04;41.86;98155.81;4486938;32;20156;-92
2022/09/20 05:44:53;;;;;;;3.05;0.90;;;;;;;19.42;43.39;98157.13;4487969;31;20096;-92
2022/09/20 05:47:42;;;;;;;3.83;0.90;;;;;;;20.18;42.06;98161.59;4487487;31;20097;-92
2022/09/20 05:50:27;;;;;;;3.00;1.12;;;;;;;20.21;41.68;98166.63;4488403;32;20522;-92
2022/09/20 05:53:00;;;;;;;1.77;0.73;;;;;;;20.69;40.95;98168.03;4490949;31;20053;-92
2022/09/20 05:55:42;;;;;;;2.45;0.90;;;;;;;21.05;39.46;98169.38;4484952;32;20084;-92
2022/09/20 05:58:41;;;;;;;2.35;0.98;;;;;;;21.07;39.41;98175.34;4488098;31;20115;-89
2022/09/20 06:01:30;;;;;;;3.15;1.30;;;;;;;20.02;41.18;98174.25;4488355;31;20065;-90
2022/09/20 06:04:20;;;;;;;4.10;1.30;;;;;;;18.33;44.96;98168.78;4486040;32;20434;-90
2022/09/20 06:06:54;;;;;;;2.72;1.20;;;;;;;17.62;46.92;98173.72;4487727;32;20092;-90
2022/09/20 06:09:56;;;;;;;4.22;1.60;;;;;;;17.89;46.79;98176.22;4490749;31;20107;-88
2022/09/20 06:12:56;;;;;;;3.10;1.10;;;;;;;19.01;44.37;98181.19;4486536;31;20107;-88
2022/09/20 06:15:35;;;;;;;3.30;0.90;;;;;;;21.15;40.37;98186.00;4484317;32;20523;-86
2022/09/20 06:18:18;;;;;;;4.30;0.95;;;;;;;21.95;38.04;98185.34;4487449;31;20060;-86
2022/09/20 06:21:00;;;;;;;1.73;1.02;;;;;;;22.61;37.30;98188.25;4486000;32;20446;-84
2022/09/20 06:23:28;;;;;;;1.70;1.00;;;;;;;23.02;36.46;98188.97;4485722;32;20088;-84
2022/09/20 06:25:59;;;;;;;2.20;1.00;;;;;;;22.53;36.66;98188.09;4484489;32;20073;-87
2022/09/20 06:28:29;;;;;;;1.87;1.20;;;;;;;22.18;37.88;98186.81;4484615;32;20096;-87
2022/09/20 06:30:56;;;;;;;4.20;1.10;;;;;;;21.10;39.59;98188.22;4484736;32;20111;-86
2022/09/20 06:33:25;;;;;;;2.72;1.00;;;;;;;22.86;36.53;98194.78;4485831;31;20421;-87
2022/09/20 06:35:57;;;;;;;2.95;0.95;;;;;;;21.88;38.67;98186.81;4484416;31;20088;-87
2022/09/20 06:41:53;;;;;;;6.28;1.00;;;;;;;21.04;39.80;98181.66;4464546;31;20145;-88
2022/09/20 06:44:20;;;;;;;2.72;1.15;;;;;;;20.65;41.50;98177.94;4484333;31;20097;-87
2022/09/20 06:46:46;;;;;;;1.55;0.90;;;;;;;20.23;41.63;98169.09;4486377;31;20076;-87
2022/09/20 06:49:13;;;;;;;2.37;1.20;;;;;;;19.55;43.16;98170.94;4485733;31;20434;-87
2022/09/20 06:51:42;;;;;;;1.90;0.90;;;;;;;19.85;43.12;98175.59;4485974;31;20468;-89
2022/09/20 06:54:16;;;;;;;3.53;1.00;;;;;;;19.41;44.13;98173.78;4485545;31;20123;-86
2022/09/20 06:56:45;;;;;;;3.08;1.20;;;;;;;20.53;41.60;98183.34;4483743;32;20163;-87
2022/09/20 06:59:13;;;;;;;1.12;0.90;;;;;;;19.75;42.86;98176.41;4485543;31;20391;-88
2022/09/20 07:01:40;;;;;;;4.65;1.00;;;;;;;20.34;41.17;98190.03;4485604;31;20096;-87
2022/09/20 07:04:08;;;;;;;2.28;0.90;;;;;;;19.87;42.27;98185.94;4485032;31;20115;-88
2022/09/20 07:06:35;;;;;;;1.30;0.80;;;;;;;16.95;48.67;98185.28;4485661;31;20076;-88
2022/09/20 07:09:03;;;;;;;1.50;0.88;;;;;;;18.38;46.01;98192.78;4485652;31;20435;-87
2022/09/20 07:11:32;;;;;;;1.25;0.80;;;;;;;19.11;44.26;98194.41;4487923;31;20454;-87
2022/09/20 07:14:15;;;;;;;2.33;0.70;;;;;;;19.08;44.87;98204.16;4489611;31;20163;-88
2022/09/20 07:16:52;;;;;;;2.45;0.80;;;;;;;19.35;44.29;98211.72;4490354;31;20084;-89
2022/09/20 07:19:29;;;;;;;1.55;0.80;;;;;;;19.33;44.44;98205.75;4487974;31;20100;-88
2022/09/20 07:22:10;;;;;;;1.67;0.88;;;;;;;19.06;43.79;98206.06;4488909;31;20100;-90
2022/09/20 07:24:43;;;;;;;3.65;1.10;;;;;;;18.47;46.01;98205.16;4489594;32;20839;-91
2022/09/20 07:27:10;;;;;;;1.83;1.00;;;;;;;18.85;44.95;98206.81;4498954;31;20076;-91
2022/09/20 07:29:39;;;;;;;3.58;1.25;;;;;;;17.30;48.41;98219.44;4494477;31;20232;-91
2022/09/20 07:32:11;;;;;;;2.83;1.50;;;;;;;18.59;45.73;98216.50;4489470;31;20088;-89
2022/09/20 07:34:41;;;;;;;3.17;1.30;;;;;;;17.00;50.00;98215.31;4487889;31;20092;-88
2022/09/20 07:37:08;;;;;;;2.28;1.10;;;;;;;17.52;49.07;98224.03;4488088;31;20393;-89
2022/09/20 07:39:35;;;;;;;2.10;1.20;;;;;;;17.43;49.63;98229.84;4487585;32;20104;-88
2022/09/20 07:42:05;;;;;;;1.90;1.10;;;;;;;17.47;49.81;98233.94;4488753;31;20107;-90
2022/09/20 07:44:32;;;;;;;2.42;1.15;;;;;;;17.34;50.23;98234.78;4488770;31;20092;-88
2022/09/20 07:46:59;;;;;;;3.33;1.37;;;;;;;16.64;52.14;98234.16;4487223;31;20076;-86
2022/09/20 07:49:29;;;;;;;2.92;1.08;;;;;;;17.01;51.98;98237.88;4486718;32;20454;-88
2022/09/20 07:51:56;;;;;;;2.50;1.10;;;;;;;16.51;51.73;98227.25;4488156;31;20100;-87
2022/09/20 07:54:23;;;;;;;2.95;1.15;;;;;;;16.54;52.45;98237.44;4485806;32;20104;-85
2022/09/20 07:56:50;;;;;;;2.62;1.30;;;;;;;16.66;50.87;98229.69;4487504;31;20076;-85
2022/09/20 07:59:17;;;;;;;6.18;1.62;;;;;;;16.37;52.94;98236.75;4485981;32;20160;-84
2022/09/20 08:01:44;;;;;;;1.75;1.15;;;;;;;17.14;51.43;98239.66;4486321;32;20104;-84
2022/09/20 08:04:11;;;;;;;2.85;1.37;;;;;;;16.58;51.99;98244.12;4485813;32;20101;-84
2022/09/20 08:06:39;;;;;;;5.12;1.73;;;;;;;16.78;52.27;98252.38;4487636;31;20367;-85
2022/09/20 08:09:07;;;;;;;3.28;1.15;;;;;;;17.20;51.26;98240.06;4473617;32;20112;-85
2022/09/20 08:11:38;;;;;;;2.90;1.20;;;;;;;16.08;53.45;98248.16;4487904;31;20444;-86
2022/09/20 08:14:06;;;;;;;5.78;2.20;;;;;;;16.68;52.97;98253.06;4472827;32;20152;-87
2022/09/20 08:16:39;;;;;;;7.65;1.98;;;;;;;16.28;53.09;98233.91;4487206;31;20084;-87
2022/09/20 08:19:07;;;;;;;7.93;2.80;;;;;;;16.35;53.21;98253.41;4487308;31;20096;-85
2022/09/20 08:21:34;;;;;;;5.05;1.62;;;;;;;17.06;51.84;98247.97;4486783;31;20165;-86
2022/09/20 08:24:02;;;;;;;3.80;1.40;;;;;;;16.74;52.90;98250.06;4485864;31;20150;-83
2022/09/20 08:26:34;;;;;;;4.50;1.37;;;;;;;16.97;52.44;98251.19;4485880;32;20080;-80
2022/09/20 08:29:02;;;;;;;2.05;1.15;;;;;;;17.32;51.74;98249.66;4487065;31;20367;-80
2022/09/20 08:31:35;;;;;;;3.25;1.48;;;;;;;17.28;50.92;98252.59;4487065;31;20100;-80
2022/09/20 08:34:05;;;;;;;1.50;1.00;;;;;;;17.74;50.13;98252.12;4485193;32;20120;-81
2022/09/20 08:36:34;;;;;;;1.70;1.10;;;;;;;17.48;50.89;98246.88;4486660;31;20427;-80
2022/09/20 08:39:04;;;;;;;1.67;1.00;;;;;;;17.76;50.41;98242.44;4485751;32;20096;-81
2022/09/20 08:42:12;;;;;;;2.40;1.10;;;;;;;16.91;52.66;98242.00;4486465;32;20141;-80
2022/09/20 08:45:00;;;;;;;1.95;1.00;;;;;;;17.75;50.43;98240.75;4484786;32;20144;-80
2022/09/20 08:47:30;;;;;;;2.87;1.00;;;;;;;18.04;49.74;98243.97;4485555;32;20650;-80
2022/09/20 08:49:58;;;;;;;1.92;1.15;;;;;;;18.24;49.62;98243.38;4485638;32;20104;-80
2022/09/20 08:52:32;;;;;;;3.12;1.17;;;;;;;17.45;50.26;98247.09;4486775;32;20088;-81
2022/09/20 08:55:22;;;;;;;1.05;0.90;;;;;;;17.31;51.94;98241.97;4485839;31;20518;-81
2022/09/20 08:57:52;;;;;;;2.75;1.12;;;;;;;17.60;50.60;98243.44;4485138;32;20085;-81
2022/09/20 09:00:22;;;;;;;4.78;1.20;;;;;;;17.57;50.45;98250.66;4485733;32;20108;-81
2022/09/20 09:03:11;;;;;;;2.35;0.90;;;;;;;16.83;52.84;98246.88;4486661;31;20468;-81
2022/09/20 09:05:51;;;;;;;1.75;1.00;;;;;;;16.72;53.72;98244.97;4484748;32;20089;-80
2022/09/20 09:08:21;;;;;;;3.00;0.93;;;;;;;16.38;54.98;98238.44;4486681;31;20153;-81
2022/09/20 09:10:53;;;;;;;2.40;0.80;;;;;;;16.47;55.33;98237.00;4486387;31;20624;-81
2022/09/20 09:13:29;;;;;;;2.87;1.10;;;;;;;17.98;51.89;98233.97;4473130;32;20134;-81
2022/09/20 09:16:01;;;;;;;4.53;1.35;;;;;;;17.35;52.28;98233.00;4491601;32;20056;-87
2022/09/20 09:18:35;;;;;;;1.85;0.95;;;;;;;16.41;54.96;98234.81;4476567;32;20069;-86
2022/09/20 09:21:03;;;;;;;1.30;0.90;;;;;;;17.01;53.59;98234.41;4490317;32;20104;-86
2022/09/20 09:23:40;;;;;;;1.90;0.80;;;;;;;17.86;51.06;98231.25;4485370;32;20115;-84
2022/09/20 09:26:28;;;;;;;1.80;0.67;;;;;;;17.49;52.18;98234.69;4495152;31;20108;-87
2022/09/20 09:29:18;;;;;;;0.60;0.50;;;;;;;17.56;50.62;98236.78;4495457;32;20108;-86
2022/09/20 09:31:51;;;;;;;1.40;0.90;;;;;;;16.70;53.63;98235.59;4493437;31;20172;-86
2022/09/20 09:34:22;;;;;;;2.47;0.82;;;;;;;16.83;53.34;98228.62;4490264;31;20499;-86
2022/09/20 09:36:54;;;;;;;0.70;0.50;;;;;;;16.27;54.93;98235.69;4495724;31;20064;-86
2022/09/20 09:39:34;;;;;;;1.60;0.70;;;;;;;16.15;55.94;98239.84;4498552;31;20057;-85
2022/09/20 09:42:20;;;;;;;1.40;0.70;;;;;;;17.10;52.96;98240.78;4500487;32;20068;-86
2022/09/20 09:44:49;;;;;;;1.08;0.70;;;;;;;16.60;54.90;98231.88;4495999;32;20083;-86
2022/09/20 09:47:27;;;;;;;1.55;0.80;;;;;;;17.51;52.41;98238.00;4491219;31;20107;-86
2022/09/20 09:49:58;;;;;;;1.73;0.60;;;;;;;18.64;51.56;98241.41;4497306;32;20169;-86
2022/09/20 09:52:35;;;;;;;1.27;0.70;;;;;;;19.35;47.99;98231.78;4498833;31;20079;-86
2022/09/20 09:55:08;;;;;;;2.87;0.90;;;;;;;18.07;49.95;98228.06;4496681;32;20064;-85
2022/09/20 09:58:09;;;;;;;1.20;0.80;;;;;;;17.29;52.62;98233.41;4498545;31;20084;-85
2022/09/20 10:00:44;;;;;;;1.33;0.80;;;;;;;17.10;53.80;98233.78;4472746;32;20096;-86
2022/09/20 10:03:39;;;;;;;2.75;0.70;;;;;;;16.82;55.41;98242.59;4483932;32;20131;-86
2022/09/20 10:06:21;;;;;;;1.58;0.73;;;;;;;17.17;56.59;98242.06;4497469;31;20056;-87
2022/09/20 10:09:10;;;;;;;1.42;0.88;;;;;;;17.12;55.69;98233.69;4498201;31;20057;-86
2022/09/20 10:11:57;;;;;;;2.78;1.05;;;;;;;16.80;55.61;98234.06;4498603;31;20060;-85
2022/09/20 10:14:28;;;;;;;0.95;0.62;;;;;;;17.00;55.40;98223.13;4491662;32;20119;-86
2022/09/20 10:17:07;;;;;;;1.15;0.68;;;;;;;17.18;54.74;98235.91;4494660;31;20064;-86
2022/09/20 10:19:56;;;;;;;0.98;0.70;;;;;;;16.64;55.70;98228.13;4495899;31;20064;-86
2022/09/20 10:22:37;;;;;;;3.60;0.55;;;;;;;15.75;58.49;98227.66;4498291;31;20112;-85
2022/09/20 10:25:23;;;;;;;1.42;0.70;;;;;;;15.96;55.75;98226.34;4492970;31;20080;-86
2022/09/20 10:28:05;;;;;;;1.15;0.50;;;;;;;17.53;52.38;98223.09;4495138;32;20092;-86
2022/09/20 10:31:11;;;;;;;1.17;0.50;;;;;;;18.20;50.41;98215.84;4495605;31;20061;-86
2022/09/20 10:34:09;;;;;;;1.48;0.90;;;;;;;18.36;49.75;98216.41;4495971;31;20061;-84
2022/09/20 10:36:46;;;;;;;0.40;0.40;;;;;;;17.18;52.87;98204.59;4494328;31;20092;-84
2022/09/20 10:39:33;;;;;;;1.40;0.50;;;;;;;16.74;51.79;98216.19;4488792;31;20100;-84
2022/09/20 10:44:52;;;;;;;1.42;0.80;;;;;;;16.60;54.17;98224.87;4488381;31;20080;-85
2022/09/20 10:47:27;;;;;;;0.98;0.70;;;;;;;18.21;50.76;98228.78;4495348;31;20119;-85
2022/09/20 10:50:20;;;;;;;1.02;0.50;;;;;;;17.70;50.08;98227.19;4493695;32;20100;-85
2022/09/20 10:53:11;;;;;;;1.48;0.60;;;;;;;18.16;50.35;98227.41;4488501;32;20079;-85
2022/09/20 10:56:17;;;;;;;0.93;0.60;;;;;;;17.99;49.31;98226.00;4488499;31;20092;-85
2022/09/20 10:58:51;;;;;;;2.35;0.75;;;;;;;17.81;49.86;98227.28;4456796;31;20096;-85
2022/09/20 11:01:21;;;;;;;0.75;0.73;;;;;;;17.89;49.94;98228.44;4488252;31;20100;-85
2022/09/20 11:04:13;;;;;;;1.05;0.70;;;;;;;18.09;49.59;98231.44;4488504;31;20127;-85
2022/09/20 11:07:01;;;;;;;1.83;0.70;;;;;;;16.61;53.59;98231.75;4490930;32;20076;-85
2022/09/20 11:09:58;;;;;;;0.93;0.73;;;;;;;17.29;54.33;98234.25;4493479;32;20478;-85
2022/09/20 11:12:43;;;;;;;2.10;1.00;;;;;;;18.10;50.75;98233.94;4493144;31;20069;-85
2022/09/20 11:15:29;;;;;;;1.77;1.08;;;;;;;17.30;52.66;98235.91;4492899;32;20088;-86
2022/09/20 11:18:11;;;;;;;1.08;0.80;;;;;;;18.35;49.05;98232.19;4495302;31;21275;-86
2022/09/20 11:20:45;;;;;;;1.20;0.50;;;;;;;19.54;46.47;98232.06;4496331;31;20073;-86
2022/09/20 11:23:19;;;;;;;3.35;1.00;;;;;;;17.81;49.82;98228.13;4496701;31;20101;-85
2022/09/20 11:26:00;;;;;;;4.10;0.80;;;;;;;16.47;54.97;98224.81;4494001;31;20126;-86
2022/09/20 11:28:40;;;;;;;2.37;0.85;;;;;;;17.52;52.94;98224.84;4489684;31;20116;-86
2022/09/20 11:31:10;;;;;;;1.52;0.70;;;;;;;18.85;49.88;98225.94;4491158;32;20105;-85
2022/09/20 11:33:48;;;;;;;1.65;0.90;;;;;;;18.05;51.48;98212.50;4493677;31;20145;-85
2022/09/20 11:36:40;;;;;;;2.12;0.88;;;;;;;19.67;48.27;98208.41;4494603;32;20074;-85
2022/09/20 11:39:41;;;;;;;1.23;0.70;;;;;;;21.04;43.53;98201.81;4485338;31;20145;-86
2022/09/20 11:42:19;;;;;;;1.00;0.80;;;;;;;19.23;45.43;98201.31;4472489;32;20105;-83
2022/09/20 11:44:46;;;;;;;1.33;0.85;;;;;;;20.11;45.76;98194.50;4484849;32;20137;-82
2022/09/20 11:47:28;;;;;;;1.40;0.82;;;;;;;20.92;42.78;98195.78;4487447;31;20088;-82
2022/09/20 11:50:37;;;;;;;1.20;0.75;;;;;;;19.63;44.85;98178.22;4487240;31;20076;-84
2022/09/20 11:53:31;;;;;;;2.50;0.93;;;;;;;20.15;44.77;98185.44;4487096;31;20146;-81
2022/09/20 11:56:09;;;;;;;1.25;0.80;;;;;;;19.96;44.57;98179.16;4486566;31;20100;-80
2022/09/20 11:59:04;;;;;;;2.35;0.73;;;;;;;21.08;42.02;98177.84;4472665;32;20092;-82
2022/09/20 12:01:35;;;;;;;0.82;0.70;;;;;;;20.78;41.86;98183.84;4485017;32;20098;-81
2022/09/20 12:04:24;;;;;;;1.75;0.65;;;;;;;21.70;39.22;98186.63;4486618;31;20113;-81
2022/09/20 12:07:25;;;;;;;2.75;1.20;;;;;;;20.10;41.49;98190.22;4485689;32;20546;-81
2022/09/20 12:09:55;;;;;;;0.85;0.80;;;;;;;19.79;43.08;98189.16;4478834;31;20092;-82
2022/09/20 12:12:36;;;;;;;1.42;0.75;;;;;;;18.26;45.82;98185.81;4485484;31;20076;-83
2022/09/20 12:15:26;;;;;;;2.53;0.85;;;;;;;18.81;45.13;98200.13;4484902;32;20108;-82
2022/09/20 12:17:56;;;;;;;1.10;0.75;;;;;;;18.11;45.41;98199.03;4487139;32;20092;-82
2022/09/20 12:20:34;;;;;;;1.83;0.80;;;;;;;17.32;48.65;98204.50;4486727;31;20088;-83
2022/09/20 12:23:41;;;;;;;2.72;0.80;;;;;;;16.22;54.14;98209.09;4487237;31;20141;-83
2022/09/20 12:26:21;;;;;;;1.98;0.80;;;;;;;15.65;54.85;98203.97;4485929;31;20096;-81
2022/09/20 12:28:50;;;;;;;1.35;0.80;;;;;;;15.74;55.74;98206.00;4487119;31;20097;-81
2022/09/20 12:31:17;;;;;;;2.05;0.70;;;;;;;16.10;57.06;98212.47;4486760;31;20096;-82
2022/09/20 12:34:02;;;;;;;3.37;1.08;;;;;;;15.86;59.73;98222.63;4486650;31;20427;-82
2022/09/20 12:36:35;;;;;;;1.70;1.20;;;;;;;16.49;58.27;98214.31;4487144;31;20088;-82
2022/09/20 12:39:11;;;;;;;1.17;1.00;;;;;;;16.58;57.86;98208.50;4486054;32;20446;-81
2022/09/20 12:41:50;;;;;;;3.10;1.12;;;;;;;16.28;59.96;98210.47;4486219;31;20111;-81